Terminal Aerodrome Forecast
Issued by NWS Milwaukee/Sullivan, WI

Home | Current Version | Previous Version | Text Only | Print | Product List | Glossary On
Versions: 1 2 3 4 5 6 7 8 9 10 11 12 13 14 15 16 17 18 19 20 21 22 23 24 25 26
000
FTUS43 KMKX 271007 AAB
TAFMSN
TAF AMD
KMSN 271007Z 2710/2806 18005KT P6SM VCTS BKN050 OVC120CB
      TEMPO 2710/2712 5SM -TSRA BKN040CB
     FM271400 17005KT P6SM BKN060
     FM271600 17006KT P6SM VCTS OVC035CB
     FM272100 19009KT P6SM VCTS BKN035CB=

USA.gov is the U.S. government's official web portal to all federal, state and local government web resources and services.